Airfield :
LOGIN :

Register | Disclaimer

   EN    FR    IT 

 










Legend :    VFR   Marginal VFR   IFR   Intensive IFR   Very Intensive IFR
Visi :
Ceiling :
>= 8 km
>= 3000ft
5 to 8 km
1000 to 3000 ft
1500m to 5 km
500 to 1000 ft
800 to 1500m
200 to 500 ft
< 800m
< 200 ft
Symbols :   Thunderstorms  Fog  Heavy snow  Heavy precipitations  Wind > 20 kt
SIGMETs :     Misc.  Thunderstorms  Icing  Turbulence  Mountain Waves  Volcanic Ashes







- Airport Elevation : 7 ft
- IATA code : VCE


LIPZ - Marco Polo Int. Venezia

CURRENT METAR :
  • 211720Z VRB02KT 7000 SCT030 16/12 Q1019 NOSIG

EXPIRED METARs :
  • 211650Z 13004KT 6000 SCT030 16/12 Q1019 NOSIG
  • 211620Z 12004KT 5000 BR SCT030 16/11 Q1019 NOSIG
  • 211550Z 12004KT 6000 FEW010 SCT050 16/11 Q1019 NOSIG
  • 211520Z 12003KT 6000 FEW015 SCT030 16/10 Q1019 NOSIG
  • 211450Z 10005KT 5000 BR SCT030 17/11 Q1019 NOSIG
  • 211420Z 11005KT 070V140 5000 BR SCT015 17/11 Q1019 NOSIG

TAF COR TAF LIPZ
Valid from the 21 at 12:00 until the 22 at 18:00 UTC


211356Z 2112/2218 VRB05KT 6000 BKN030
TEMPO 2204/2210 RA
BECMG 2206/2208 03013KT
TEMPO 2210/2218 4000 TSRA
No reported NOTAMs for that airfield.



MET'MAP, your aeronautical weather chart ! - Copyright ORBIFLY December 2007 - Disclaimer

ORBIFLY MET'MAP TEAM :

Programming & Development : Alexandra Zaïnal
Concept & Development : Baudouin d'Aumeries
Co-Development & Prog : Marc-Olivier Méhu
Technical & hardware support : Manuel Goepfert

Contact : metmap@orbifly.com




SOURCES & CREDITS :

   NOAA